sensor_id;sensor_type;location;lat;lon;timestamp;P1;durP1;ratioP1;P2;durP2;ratioP2
43487;SDS011;29078;41.932;25.554;2023-02-28T00:01:25;28.58;;;13.60;;
43487;SDS011;29078;41.932;25.554;2023-02-28T00:03:50;25.90;;;13.70;;
43487;SDS011;29078;41.932;25.554;2023-02-28T00:06:16;33.25;;;13.27;;
43487;SDS011;29078;41.932;25.554;2023-02-28T00:08:41;26.83;;;12.02;;
43487;SDS011;29078;41.932;25.554;2023-02-28T00:11:08;28.63;;;12.00;;
43487;SDS011;29078;41.932;25.554;2023-02-28T00:13:36;28.40;;;12.20;;
43487;SDS011;29078;41.932;25.554;2023-02-28T00:16:07;24.00;;;11.60;;
43487;SDS011;29078;41.932;25.554;2023-02-28T00:18:38;25.13;;;9.77;;
43487;SDS011;29078;41.932;25.554;2023-02-28T00:21:04;29.90;;;11.30;;
43487;SDS011;29078;41.932;25.554;2023-02-28T00:23:30;20.80;;;9.80;;
43487;SDS011;29078;41.932;25.554;2023-02-28T00:25:55;31.00;;;11.23;;
43487;SDS011;29078;41.932;25.554;2023-02-28T00:28:21;24.70;;;10.48;;
43487;SDS011;29078;41.932;25.554;2023-02-28T00:30:47;27.13;;;11.10;;
43487;SDS011;29078;41.932;25.554;2023-02-28T00:33:13;25.63;;;10.93;;
43487;SDS011;29078;41.932;25.554;2023-02-28T00:35:38;19.88;;;10.40;;
43487;SDS011;29078;41.932;25.554;2023-02-28T00:38:04;27.20;;;10.25;;
43487;SDS011;29078;41.932;25.554;2023-02-28T00:40:30;23.52;;;9.73;;
43487;SDS011;29078;41.932;25.554;2023-02-28T00:42:56;22.58;;;9.82;;
43487;SDS011;29078;41.932;25.554;2023-02-28T00:45:21;26.90;;;10.90;;
43487;SDS011;29078;41.932;25.554;2023-02-28T00:47:46;22.75;;;9.93;;
43487;SDS011;29078;41.932;25.554;2023-02-28T00:50:14;25.52;;;12.32;;
43487;SDS011;29078;41.932;25.554;2023-02-28T00:52:43;29.35;;;13.73;;
43487;SDS011;29078;41.932;25.554;2023-02-28T00:55:09;27.10;;;12.77;;
43487;SDS011;29078;41.932;25.554;2023-02-28T00:57:35;25.13;;;12.90;;
43487;SDS011;29078;41.932;25.554;2023-02-28T01:00:01;23.50;;;12.25;;
43487;SDS011;29078;41.932;25.554;2023-02-28T01:02:27;26.52;;;12.48;;
43487;SDS011;29078;41.932;25.554;2023-02-28T01:04:52;24.20;;;12.95;;
43487;SDS011;29078;41.932;25.554;2023-02-28T01:07:17;24.42;;;13.70;;
43487;SDS011;29078;41.932;25.554;2023-02-28T01:09:43;24.48;;;13.68;;
43487;SDS011;29078;41.932;25.554;2023-02-28T01:12:08;27.20;;;16.48;;
43487;SDS011;29078;41.932;25.554;2023-02-28T01:14:34;24.45;;;15.60;;
43487;SDS011;29078;41.932;25.554;2023-02-28T01:17:00;25.67;;;14.90;;
43487;SDS011;29078;41.932;25.554;2023-02-28T01:19:26;28.90;;;15.45;;
43487;SDS011;29078;41.932;25.554;2023-02-28T01:21:51;31.73;;;14.25;;
43487;SDS011;29078;41.932;25.554;2023-02-28T01:24:16;27.38;;;15.13;;
43487;SDS011;29078;41.932;25.554;2023-02-28T01:26:42;27.40;;;14.35;;
43487;SDS011;29078;41.932;25.554;2023-02-28T01:29:07;35.47;;;15.65;;
43487;SDS011;29078;41.932;25.554;2023-02-28T01:31:33;24.23;;;14.95;;
43487;SDS011;29078;41.932;25.554;2023-02-28T01:33:58;25.75;;;13.68;;
43487;SDS011;29078;41.932;25.554;2023-02-28T01:36:24;25.45;;;14.70;;
43487;SDS011;29078;41.932;25.554;2023-02-28T01:38:50;25.80;;;12.85;;
43487;SDS011;29078;41.932;25.554;2023-02-28T01:41:18;29.25;;;14.38;;
43487;SDS011;29078;41.932;25.554;2023-02-28T01:46:12;25.58;;;14.23;;
43487;SDS011;29078;41.932;25.554;2023-02-28T01:48:43;25.38;;;13.40;;
43487;SDS011;29078;41.932;25.554;2023-02-28T01:51:26;27.05;;;15.90;;
43487;SDS011;29078;41.932;25.554;2023-02-28T01:54:01;29.67;;;15.13;;
43487;SDS011;29078;41.932;25.554;2023-02-28T01:56:38;27.45;;;14.30;;
43487;SDS011;29078;41.932;25.554;2023-02-28T01:59:07;29.15;;;15.13;;
43487;SDS011;29078;41.932;25.554;2023-02-28T02:01:33;27.98;;;15.18;;
43487;SDS011;29078;41.932;25.554;2023-02-28T02:03:59;20.58;;;15.10;;
43487;SDS011;29078;41.932;25.554;2023-02-28T02:06:28;23.83;;;13.45;;
43487;SDS011;29078;41.932;25.554;2023-02-28T02:09:05;20.52;;;13.80;;
43487;SDS011;29078;41.932;25.554;2023-02-28T02:11:31;30.10;;;15.18;;
43487;SDS011;29078;41.932;25.554;2023-02-28T02:19:30;22.15;;;14.35;;
43487;SDS011;29078;41.932;25.554;2023-02-28T02:46:21;16.20;;;11.45;;
43487;SDS011;29078;41.932;25.554;2023-02-28T02:48:52;23.58;;;12.35;;
43487;SDS011;29078;41.932;25.554;2023-02-28T02:51:21;20.13;;;11.15;;
43487;SDS011;29078;41.932;25.554;2023-02-28T02:53:49;16.80;;;11.15;;
43487;SDS011;29078;41.932;25.554;2023-02-28T02:56:21;17.08;;;10.63;;
43487;SDS011;29078;41.932;25.554;2023-02-28T02:58:50;16.92;;;9.25;;
43487;SDS011;29078;41.932;25.554;2023-02-28T03:01:19;13.35;;;8.15;;
43487;SDS011;29078;41.932;25.554;2023-02-28T03:04:15;16.23;;;9.40;;
43487;SDS011;29078;41.932;25.554;2023-02-28T03:06:41;11.13;;;7.22;;
43487;SDS011;29078;41.932;25.554;2023-02-28T03:09:06;14.30;;;7.78;;
43487;SDS011;29078;41.932;25.554;2023-02-28T03:11:32;15.00;;;7.20;;
43487;SDS011;29078;41.932;25.554;2023-02-28T03:23:01;11.80;;;6.68;;
43487;SDS011;29078;41.932;25.554;2023-02-28T03:31:16;9.40;;;6.05;;
43487;SDS011;29078;41.932;25.554;2023-02-28T03:33:50;11.00;;;6.20;;
43487;SDS011;29078;41.932;25.554;2023-02-28T03:36:21;8.30;;;5.60;;
43487;SDS011;29078;41.932;25.554;2023-02-28T03:38:58;12.88;;;6.13;;
43487;SDS011;29078;41.932;25.554;2023-02-28T03:41:38;10.02;;;6.35;;
43487;SDS011;29078;41.932;25.554;2023-02-28T03:44:16;10.40;;;5.45;;
43487;SDS011;29078;41.932;25.554;2023-02-28T03:49:53;10.05;;;4.90;;
43487;SDS011;29078;41.932;25.554;2023-02-28T03:54:50;13.55;;;5.40;;
43487;SDS011;29078;41.932;25.554;2023-02-28T04:00:27;8.23;;;5.88;;
43487;SDS011;29078;41.932;25.554;2023-02-28T04:02:55;12.85;;;5.90;;
43487;SDS011;29078;41.932;25.554;2023-02-28T04:05:21;8.88;;;5.55;;
43487;SDS011;29078;41.932;25.554;2023-02-28T04:07:48;8.68;;;5.40;;
43487;SDS011;29078;41.932;25.554;2023-02-28T04:10:14;8.73;;;5.50;;
43487;SDS011;29078;41.932;25.554;2023-02-28T04:12:40;15.00;;;6.50;;
43487;SDS011;29078;41.932;25.554;2023-02-28T04:15:06;12.93;;;6.53;;
43487;SDS011;29078;41.932;25.554;2023-02-28T04:17:32;23.52;;;5.97;;
43487;SDS011;29078;41.932;25.554;2023-02-28T04:19:57;11.73;;;5.78;;
43487;SDS011;29078;41.932;25.554;2023-02-28T04:22:23;11.13;;;6.00;;
43487;SDS011;29078;41.932;25.554;2023-02-28T04:24:51;10.10;;;6.13;;
43487;SDS011;29078;41.932;25.554;2023-02-28T04:27:19;9.38;;;5.43;;
43487;SDS011;29078;41.932;25.554;2023-02-28T04:29:45;10.65;;;6.50;;
43487;SDS011;29078;41.932;25.554;2023-02-28T04:32:11;10.25;;;6.65;;
43487;SDS011;29078;41.932;25.554;2023-02-28T04:34:37;12.10;;;8.00;;
43487;SDS011;29078;41.932;25.554;2023-02-28T04:37:02;11.45;;;8.75;;
43487;SDS011;29078;41.932;25.554;2023-02-28T04:39:28;17.38;;;10.07;;
43487;SDS011;29078;41.932;25.554;2023-02-28T04:41:54;14.55;;;9.77;;
43487;SDS011;29078;41.932;25.554;2023-02-28T04:44:20;13.98;;;10.05;;
43487;SDS011;29078;41.932;25.554;2023-02-28T04:46:47;19.60;;;9.65;;
43487;SDS011;29078;41.932;25.554;2023-02-28T04:49:13;19.77;;;9.75;;
43487;SDS011;29078;41.932;25.554;2023-02-28T04:51:39;20.80;;;9.25;;
43487;SDS011;29078;41.932;25.554;2023-02-28T04:54:05;20.52;;;9.43;;
43487;SDS011;29078;41.932;25.554;2023-02-28T04:56:31;17.83;;;8.70;;
43487;SDS011;29078;41.932;25.554;2023-02-28T04:58:56;17.58;;;8.27;;
43487;SDS011;29078;41.932;25.554;2023-02-28T05:03:49;15.68;;;8.52;;
43487;SDS011;29078;41.932;25.554;2023-02-28T05:06:15;19.88;;;8.70;;
43487;SDS011;29078;41.932;25.554;2023-02-28T05:08:41;17.45;;;8.57;;
43487;SDS011;29078;41.932;25.554;2023-02-28T05:11:14;15.48;;;9.65;;
43487;SDS011;29078;41.932;25.554;2023-02-28T05:13:45;15.73;;;10.48;;
43487;SDS011;29078;41.932;25.554;2023-02-28T05:16:11;17.08;;;10.30;;
43487;SDS011;29078;41.932;25.554;2023-02-28T05:18:36;14.07;;;11.50;;
43487;SDS011;29078;41.932;25.554;2023-02-28T05:21:02;14.02;;;10.73;;
43487;SDS011;29078;41.932;25.554;2023-02-28T05:23:28;16.73;;;11.75;;
43487;SDS011;29078;41.932;25.554;2023-02-28T05:25:53;17.25;;;11.30;;
43487;SDS011;29078;41.932;25.554;2023-02-28T05:28:19;14.77;;;10.45;;
43487;SDS011;29078;41.932;25.554;2023-02-28T05:30:45;15.32;;;10.00;;
43487;SDS011;29078;41.932;25.554;2023-02-28T05:33:11;19.35;;;10.20;;
43487;SDS011;29078;41.932;25.554;2023-02-28T05:35:40;12.57;;;9.50;;
43487;SDS011;29078;41.932;25.554;2023-02-28T05:38:06;18.42;;;10.35;;
43487;SDS011;29078;41.932;25.554;2023-02-28T05:40:31;13.38;;;8.57;;
43487;SDS011;29078;41.932;25.554;2023-02-28T05:42:57;13.15;;;8.95;;
43487;SDS011;29078;41.932;25.554;2023-02-28T05:45:22;18.02;;;10.80;;
43487;SDS011;29078;41.932;25.554;2023-02-28T05:47:48;14.27;;;8.77;;
43487;SDS011;29078;41.932;25.554;2023-02-28T05:50:13;10.93;;;9.60;;
43487;SDS011;29078;41.932;25.554;2023-02-28T05:52:39;15.18;;;9.60;;
43487;SDS011;29078;41.932;25.554;2023-02-28T05:55:04;15.38;;;10.93;;
43487;SDS011;29078;41.932;25.554;2023-02-28T05:57:30;18.23;;;9.77;;
43487;SDS011;29078;41.932;25.554;2023-02-28T05:59:56;13.93;;;10.00;;
43487;SDS011;29078;41.932;25.554;2023-02-28T06:02:21;13.60;;;9.70;;
43487;SDS011;29078;41.932;25.554;2023-02-28T06:04:46;16.60;;;10.82;;
43487;SDS011;29078;41.932;25.554;2023-02-28T06:07:12;15.18;;;9.85;;
43487;SDS011;29078;41.932;25.554;2023-02-28T06:09:37;16.17;;;10.48;;
43487;SDS011;29078;41.932;25.554;2023-02-28T06:12:03;16.80;;;10.63;;
43487;SDS011;29078;41.932;25.554;2023-02-28T06:14:31;15.65;;;10.40;;
43487;SDS011;29078;41.932;25.554;2023-02-28T06:16:58;17.90;;;12.02;;
43487;SDS011;29078;41.932;25.554;2023-02-28T06:19:25;17.25;;;11.48;;
43487;SDS011;29078;41.932;25.554;2023-02-28T06:21:51;18.83;;;12.63;;
43487;SDS011;29078;41.932;25.554;2023-02-28T06:24:21;19.73;;;12.50;;
43487;SDS011;29078;41.932;25.554;2023-02-28T06:26:47;17.02;;;12.43;;
43487;SDS011;29078;41.932;25.554;2023-02-28T06:29:13;18.52;;;14.23;;
43487;SDS011;29078;41.932;25.554;2023-02-28T06:31:43;19.70;;;13.45;;
43487;SDS011;29078;41.932;25.554;2023-02-28T06:34:10;20.75;;;13.55;;
43487;SDS011;29078;41.932;25.554;2023-02-28T06:36:39;21.58;;;14.73;;
43487;SDS011;29078;41.932;25.554;2023-02-28T06:39:06;18.25;;;13.40;;
43487;SDS011;29078;41.932;25.554;2023-02-28T06:41:32;17.15;;;12.95;;
43487;SDS011;29078;41.932;25.554;2023-02-28T06:44:02;20.80;;;14.68;;
43487;SDS011;29078;41.932;25.554;2023-02-28T06:46:29;23.30;;;15.93;;
43487;SDS011;29078;41.932;25.554;2023-02-28T06:48:54;19.05;;;17.02;;
43487;SDS011;29078;41.932;25.554;2023-02-28T06:51:20;19.67;;;15.48;;
43487;SDS011;29078;41.932;25.554;2023-02-28T06:53:47;22.55;;;16.27;;
43487;SDS011;29078;41.932;25.554;2023-02-28T06:56:13;22.17;;;15.13;;
43487;SDS011;29078;41.932;25.554;2023-02-28T06:58:40;18.92;;;15.15;;
43487;SDS011;29078;41.932;25.554;2023-02-28T07:01:07;19.98;;;16.15;;
43487;SDS011;29078;41.932;25.554;2023-02-28T07:03:34;23.95;;;17.55;;
43487;SDS011;29078;41.932;25.554;2023-02-28T07:06:01;22.85;;;17.50;;
43487;SDS011;29078;41.932;25.554;2023-02-28T07:08:27;25.73;;;19.55;;
43487;SDS011;29078;41.932;25.554;2023-02-28T07:10:56;25.63;;;19.15;;
43487;SDS011;29078;41.932;25.554;2023-02-28T07:13:22;27.65;;;19.25;;
43487;SDS011;29078;41.932;25.554;2023-02-28T07:18:20;25.60;;;18.75;;
43487;SDS011;29078;41.932;25.554;2023-02-28T07:20:45;27.85;;;20.50;;
43487;SDS011;29078;41.932;25.554;2023-02-28T07:23:11;26.83;;;18.77;;
43487;SDS011;29078;41.932;25.554;2023-02-28T07:25:36;27.20;;;19.67;;
43487;SDS011;29078;41.932;25.554;2023-02-28T07:28:01;28.52;;;21.90;;
43487;SDS011;29078;41.932;25.554;2023-02-28T07:30:27;32.08;;;22.63;;
43487;SDS011;29078;41.932;25.554;2023-02-28T07:32:52;35.88;;;25.30;;
43487;SDS011;29078;41.932;25.554;2023-02-28T07:35:21;30.48;;;23.55;;
43487;SDS011;29078;41.932;25.554;2023-02-28T07:37:46;33.53;;;25.02;;
43487;SDS011;29078;41.932;25.554;2023-02-28T07:40:12;35.00;;;26.50;;
43487;SDS011;29078;41.932;25.554;2023-02-28T07:42:38;30.23;;;24.63;;
43487;SDS011;29078;41.932;25.554;2023-02-28T07:45:05;41.40;;;27.27;;
43487;SDS011;29078;41.932;25.554;2023-02-28T07:47:31;33.15;;;22.67;;
43487;SDS011;29078;41.932;25.554;2023-02-28T07:49:57;26.63;;;20.92;;
43487;SDS011;29078;41.932;25.554;2023-02-28T07:52:23;34.30;;;24.70;;
43487;SDS011;29078;41.932;25.554;2023-02-28T07:54:49;34.00;;;24.35;;
43487;SDS011;29078;41.932;25.554;2023-02-28T07:57:15;36.00;;;26.02;;
43487;SDS011;29078;41.932;25.554;2023-02-28T07:59:40;34.83;;;25.35;;
43487;SDS011;29078;41.932;25.554;2023-02-28T08:02:06;32.33;;;23.23;;
43487;SDS011;29078;41.932;25.554;2023-02-28T08:04:32;34.60;;;23.00;;
43487;SDS011;29078;41.932;25.554;2023-02-28T08:06:57;32.00;;;25.60;;
43487;SDS011;29078;41.932;25.554;2023-02-28T08:09:23;31.52;;;23.17;;
43487;SDS011;29078;41.932;25.554;2023-02-28T08:11:48;29.75;;;22.88;;
43487;SDS011;29078;41.932;25.554;2023-02-28T08:14:13;33.40;;;23.67;;
43487;SDS011;29078;41.932;25.554;2023-02-28T08:16:39;34.92;;;25.17;;
43487;SDS011;29078;41.932;25.554;2023-02-28T08:19:04;33.47;;;23.80;;
43487;SDS011;29078;41.932;25.554;2023-02-28T08:21:30;36.88;;;24.80;;
43487;SDS011;29078;41.932;25.554;2023-02-28T08:23:55;37.53;;;25.17;;
43487;SDS011;29078;41.932;25.554;2023-02-28T08:26:22;28.45;;;23.00;;
43487;SDS011;29078;41.932;25.554;2023-02-28T08:28:47;39.33;;;25.08;;
43487;SDS011;29078;41.932;25.554;2023-02-28T08:31:13;39.78;;;28.35;;
43487;SDS011;29078;41.932;25.554;2023-02-28T08:33:41;40.40;;;27.58;;
43487;SDS011;29078;41.932;25.554;2023-02-28T08:36:07;44.72;;;29.42;;
43487;SDS011;29078;41.932;25.554;2023-02-28T08:38:33;40.17;;;31.50;;
43487;SDS011;29078;41.932;25.554;2023-02-28T08:41:00;43.97;;;32.95;;
43487;SDS011;29078;41.932;25.554;2023-02-28T08:45:57;42.45;;;29.20;;
43487;SDS011;29078;41.932;25.554;2023-02-28T08:48:23;51.80;;;32.00;;
43487;SDS011;29078;41.932;25.554;2023-02-28T08:51:00;87.03;;;51.75;;
43487;SDS011;29078;41.932;25.554;2023-02-28T08:53:27;84.13;;;50.90;;
43487;SDS011;29078;41.932;25.554;2023-02-28T08:56:03;97.18;;;53.65;;
43487;SDS011;29078;41.932;25.554;2023-02-28T08:58:34;91.22;;;54.85;;
43487;SDS011;29078;41.932;25.554;2023-02-28T09:01:00;90.35;;;53.55;;
43487;SDS011;29078;41.932;25.554;2023-02-28T09:03:25;92.22;;;52.45;;
43487;SDS011;29078;41.932;25.554;2023-02-28T09:05:58;95.88;;;50.75;;
43487;SDS011;29078;41.932;25.554;2023-02-28T09:08:25;70.73;;;42.13;;
43487;SDS011;29078;41.932;25.554;2023-02-28T09:10:52;74.22;;;43.63;;
43487;SDS011;29078;41.932;25.554;2023-02-28T09:13:19;70.05;;;45.15;;
43487;SDS011;29078;41.932;25.554;2023-02-28T09:15:45;78.20;;;48.20;;
43487;SDS011;29078;41.932;25.554;2023-02-28T09:18:11;80.45;;;46.65;;
43487;SDS011;29078;41.932;25.554;2023-02-28T09:20:37;85.93;;;51.00;;
43487;SDS011;29078;41.932;25.554;2023-02-28T09:23:04;90.18;;;49.63;;
43487;SDS011;29078;41.932;25.554;2023-02-28T09:25:30;94.88;;;52.60;;
43487;SDS011;29078;41.932;25.554;2023-02-28T09:27:56;90.80;;;52.92;;
43487;SDS011;29078;41.932;25.554;2023-02-28T09:30:21;83.68;;;50.13;;
43487;SDS011;29078;41.932;25.554;2023-02-28T09:32:47;89.90;;;51.13;;
43487;SDS011;29078;41.932;25.554;2023-02-28T09:35:18;81.28;;;47.17;;
43487;SDS011;29078;41.932;25.554;2023-02-28T09:37:47;74.80;;;44.92;;
43487;SDS011;29078;41.932;25.554;2023-02-28T09:40:14;68.82;;;42.03;;
43487;SDS011;29078;41.932;25.554;2023-02-28T09:42:43;66.03;;;41.13;;
43487;SDS011;29078;41.932;25.554;2023-02-28T09:45:31;57.35;;;40.47;;
43487;SDS011;29078;41.932;25.554;2023-02-28T09:48:01;48.28;;;33.70;;
43487;SDS011;29078;41.932;25.554;2023-02-28T09:53:04;46.53;;;33.15;;
43487;SDS011;29078;41.932;25.554;2023-02-28T09:55:40;44.95;;;31.77;;
43487;SDS011;29078;41.932;25.554;2023-02-28T09:58:20;35.80;;;25.85;;
43487;SDS011;29078;41.932;25.554;2023-02-28T10:00:56;28.80;;;22.70;;
43487;SDS011;29078;41.932;25.554;2023-02-28T10:03:46;28.02;;;22.77;;
43487;SDS011;29078;41.932;25.554;2023-02-28T10:06:26;25.02;;;19.92;;
43487;SDS011;29078;41.932;25.554;2023-02-28T10:09:02;23.58;;;21.05;;
43487;SDS011;29078;41.932;25.554;2023-02-28T10:11:34;24.83;;;20.63;;
43487;SDS011;29078;41.932;25.554;2023-02-28T10:14:04;25.90;;;21.05;;
43487;SDS011;29078;41.932;25.554;2023-02-28T10:16:38;26.63;;;20.73;;
43487;SDS011;29078;41.932;25.554;2023-02-28T10:19:16;25.27;;;20.27;;
43487;SDS011;29078;41.932;25.554;2023-02-28T10:21:55;24.65;;;19.83;;
43487;SDS011;29078;41.932;25.554;2023-02-28T10:27:14;25.40;;;20.42;;
43487;SDS011;29078;41.932;25.554;2023-02-28T10:29:48;21.75;;;17.80;;
43487;SDS011;29078;41.932;25.554;2023-02-28T10:32:17;21.02;;;17.55;;
43487;SDS011;29078;41.932;25.554;2023-02-28T10:34:44;20.60;;;17.52;;
43487;SDS011;29078;41.932;25.554;2023-02-28T10:37:10;27.45;;;21.00;;
43487;SDS011;29078;41.932;25.554;2023-02-28T10:39:44;24.63;;;18.42;;
43487;SDS011;29078;41.932;25.554;2023-02-28T10:42:21;20.45;;;16.02;;
43487;SDS011;29078;41.932;25.554;2023-02-28T10:45:11;17.75;;;15.75;;
43487;SDS011;29078;41.932;25.554;2023-02-28T10:47:54;17.08;;;14.70;;
43487;SDS011;29078;41.932;25.554;2023-02-28T10:53:03;19.90;;;17.20;;
43487;SDS011;29078;41.932;25.554;2023-02-28T10:55:33;21.45;;;15.88;;
43487;SDS011;29078;41.932;25.554;2023-02-28T10:57:59;19.83;;;15.77;;
43487;SDS011;29078;41.932;25.554;2023-02-28T11:00:25;18.67;;;14.93;;
43487;SDS011;29078;41.932;25.554;2023-02-28T11:02:56;20.35;;;16.90;;
43487;SDS011;29078;41.932;25.554;2023-02-28T11:10:57;16.67;;;14.93;;
43487;SDS011;29078;41.932;25.554;2023-02-28T11:13:32;17.45;;;14.68;;
43487;SDS011;29078;41.932;25.554;2023-02-28T11:16:09;17.75;;;15.60;;
43487;SDS011;29078;41.932;25.554;2023-02-28T11:19:15;17.92;;;13.65;;
43487;SDS011;29078;41.932;25.554;2023-02-28T11:21:36;18.20;;;15.68;;
43487;SDS011;29078;41.932;25.554;2023-02-28T11:26:43;19.30;;;15.02;;
43487;SDS011;29078;41.932;25.554;2023-02-28T11:31:36;22.23;;;15.55;;
43487;SDS011;29078;41.932;25.554;2023-02-28T11:34:10;18.95;;;13.75;;
43487;SDS011;29078;41.932;25.554;2023-02-28T11:36:53;17.20;;;14.27;;
43487;SDS011;29078;41.932;25.554;2023-02-28T11:39:20;17.65;;;13.27;;
43487;SDS011;29078;41.932;25.554;2023-02-28T11:41:55;19.70;;;14.00;;
43487;SDS011;29078;41.932;25.554;2023-02-28T11:59:59;21.02;;;15.95;;
43487;SDS011;29078;41.932;25.554;2023-02-28T12:02:55;19.90;;;16.70;;
43487;SDS011;29078;41.932;25.554;2023-02-28T12:05:39;23.77;;;18.48;;
43487;SDS011;29078;41.932;25.554;2023-02-28T12:14:14;25.23;;;18.55;;
43487;SDS011;29078;41.932;25.554;2023-02-28T12:19:40;25.52;;;19.67;;
43487;SDS011;29078;41.932;25.554;2023-02-28T12:28:07;27.20;;;18.83;;
43487;SDS011;29078;41.932;25.554;2023-02-28T12:30:36;24.08;;;18.75;;
43487;SDS011;29078;41.932;25.554;2023-02-28T12:33:09;22.08;;;16.90;;
43487;SDS011;29078;41.932;25.554;2023-02-28T12:35:56;18.48;;;15.38;;
43487;SDS011;29078;41.932;25.554;2023-02-28T12:38:28;19.83;;;14.85;;
43487;SDS011;29078;41.932;25.554;2023-02-28T12:41:04;21.35;;;16.02;;
43487;SDS011;29078;41.932;25.554;2023-02-28T12:43:40;19.40;;;15.57;;
43487;SDS011;29078;41.932;25.554;2023-02-28T12:46:11;19.75;;;15.45;;
43487;SDS011;29078;41.932;25.554;2023-02-28T12:51:33;18.05;;;14.18;;
43487;SDS011;29078;41.932;25.554;2023-02-28T12:57:09;17.65;;;14.75;;
43487;SDS011;29078;41.932;25.554;2023-02-28T12:59:59;15.07;;;12.85;;
43487;SDS011;29078;41.932;25.554;2023-02-28T13:13:25;20.50;;;17.40;;
43487;SDS011;29078;41.932;25.554;2023-02-28T13:21:08;21.05;;;15.60;;
43487;SDS011;29078;41.932;25.554;2023-02-28T13:28:57;20.70;;;15.52;;
43487;SDS011;29078;41.932;25.554;2023-02-28T13:31:24;17.35;;;14.52;;
43487;SDS011;29078;41.932;25.554;2023-02-28T13:36:26;20.17;;;15.63;;
43487;SDS011;29078;41.932;25.554;2023-02-28T13:38:55;22.15;;;16.73;;
43487;SDS011;29078;41.932;25.554;2023-02-28T13:46:32;21.42;;;17.13;;
43487;SDS011;29078;41.932;25.554;2023-02-28T14:00:23;19.27;;;16.33;;
43487;SDS011;29078;41.932;25.554;2023-02-28T14:03:11;21.40;;;17.00;;
43487;SDS011;29078;41.932;25.554;2023-02-28T14:17:00;22.27;;;17.27;;
43487;SDS011;29078;41.932;25.554;2023-02-28T14:19:27;23.13;;;16.67;;
43487;SDS011;29078;41.932;25.554;2023-02-28T14:30:04;22.80;;;18.50;;
43487;SDS011;29078;41.932;25.554;2023-02-28T14:32:53;23.95;;;18.92;;
43487;SDS011;29078;41.932;25.554;2023-02-28T14:38:01;23.88;;;18.92;;
43487;SDS011;29078;41.932;25.554;2023-02-28T14:40:34;22.88;;;18.88;;
43487;SDS011;29078;41.932;25.554;2023-02-28T14:43:01;26.10;;;20.13;;
43487;SDS011;29078;41.932;25.554;2023-02-28T14:45:29;24.77;;;18.63;;
43487;SDS011;29078;41.932;25.554;2023-02-28T14:47:57;24.70;;;18.63;;
43487;SDS011;29078;41.932;25.554;2023-02-28T14:50:25;25.67;;;21.02;;
43487;SDS011;29078;41.932;25.554;2023-02-28T14:52:55;23.15;;;19.50;;
43487;SDS011;29078;41.932;25.554;2023-02-28T14:55:43;28.33;;;19.48;;
43487;SDS011;29078;41.932;25.554;2023-02-28T14:58:21;20.88;;;17.38;;
43487;SDS011;29078;41.932;25.554;2023-02-28T15:00:52;24.88;;;20.13;;
43487;SDS011;29078;41.932;25.554;2023-02-28T15:06:03;23.98;;;19.30;;
43487;SDS011;29078;41.932;25.554;2023-02-28T15:08:37;21.60;;;16.83;;
43487;SDS011;29078;41.932;25.554;2023-02-28T15:11:13;20.50;;;16.75;;
43487;SDS011;29078;41.932;25.554;2023-02-28T15:13:45;20.55;;;16.50;;
43487;SDS011;29078;41.932;25.554;2023-02-28T15:16:22;18.65;;;15.27;;
43487;SDS011;29078;41.932;25.554;2023-02-28T15:21:25;19.38;;;16.77;;
43487;SDS011;29078;41.932;25.554;2023-02-28T15:23:58;22.05;;;18.30;;
43487;SDS011;29078;41.932;25.554;2023-02-28T15:26:30;20.23;;;18.00;;
43487;SDS011;29078;41.932;25.554;2023-02-28T15:29:05;21.00;;;17.23;;
43487;SDS011;29078;41.932;25.554;2023-02-28T15:31:33;18.60;;;15.35;;
43487;SDS011;29078;41.932;25.554;2023-02-28T15:34:05;21.60;;;17.23;;
43487;SDS011;29078;41.932;25.554;2023-02-28T15:36:32;18.30;;;15.82;;
43487;SDS011;29078;41.932;25.554;2023-02-28T15:39:02;17.95;;;16.05;;
43487;SDS011;29078;41.932;25.554;2023-02-28T15:41:43;18.80;;;16.37;;
43487;SDS011;29078;41.932;25.554;2023-02-28T15:44:24;19.65;;;16.25;;
43487;SDS011;29078;41.932;25.554;2023-02-28T15:46:57;18.95;;;15.55;;
43487;SDS011;29078;41.932;25.554;2023-02-28T15:51:50;20.35;;;16.38;;
43487;SDS011;29078;41.932;25.554;2023-02-28T15:54:38;18.10;;;16.08;;
43487;SDS011;29078;41.932;25.554;2023-02-28T15:57:05;18.45;;;15.73;;
43487;SDS011;29078;41.932;25.554;2023-02-28T15:59:35;24.50;;;20.00;;
43487;SDS011;29078;41.932;25.554;2023-02-28T16:07:42;24.30;;;19.90;;
43487;SDS011;29078;41.932;25.554;2023-02-28T16:10:09;25.92;;;21.58;;
43487;SDS011;29078;41.932;25.554;2023-02-28T16:12:39;26.17;;;22.38;;
43487;SDS011;29078;41.932;25.554;2023-02-28T16:15:08;29.48;;;24.30;;
43487;SDS011;29078;41.932;25.554;2023-02-28T16:17:43;35.35;;;26.77;;
43487;SDS011;29078;41.932;25.554;2023-02-28T16:20:42;32.45;;;27.73;;
43487;SDS011;29078;41.932;25.554;2023-02-28T16:23:01;31.98;;;25.40;;
43487;SDS011;29078;41.932;25.554;2023-02-28T16:25:34;26.08;;;21.55;;
43487;SDS011;29078;41.932;25.554;2023-02-28T16:28:01;21.17;;;18.17;;
43487;SDS011;29078;41.932;25.554;2023-02-28T16:30:28;21.50;;;17.95;;
43487;SDS011;29078;41.932;25.554;2023-02-28T16:32:57;24.55;;;20.83;;
43487;SDS011;29078;41.932;25.554;2023-02-28T16:35:23;19.58;;;15.95;;
43487;SDS011;29078;41.932;25.554;2023-02-28T16:37:50;19.30;;;16.58;;
43487;SDS011;29078;41.932;25.554;2023-02-28T16:40:17;11.88;;;10.57;;
43487;SDS011;29078;41.932;25.554;2023-02-28T16:42:45;10.80;;;9.77;;
43487;SDS011;29078;41.932;25.554;2023-02-28T16:45:23;8.25;;;7.38;;
43487;SDS011;29078;41.932;25.554;2023-02-28T16:47:50;8.70;;;7.88;;
43487;SDS011;29078;41.932;25.554;2023-02-28T16:50:18;7.90;;;6.85;;
43487;SDS011;29078;41.932;25.554;2023-02-28T16:52:45;7.90;;;7.20;;
43487;SDS011;29078;41.932;25.554;2023-02-28T16:55:11;6.10;;;5.50;;
43487;SDS011;29078;41.932;25.554;2023-02-28T16:57:36;6.43;;;5.78;;
43487;SDS011;29078;41.932;25.554;2023-02-28T17:00:03;6.82;;;6.13;;
43487;SDS011;29078;41.932;25.554;2023-02-28T17:02:32;7.75;;;6.97;;
43487;SDS011;29078;41.932;25.554;2023-02-28T17:04:58;8.10;;;7.40;;
43487;SDS011;29078;41.932;25.554;2023-02-28T17:07:24;8.20;;;7.13;;
43487;SDS011;29078;41.932;25.554;2023-02-28T17:09:49;8.55;;;7.65;;
43487;SDS011;29078;41.932;25.554;2023-02-28T17:12:15;7.63;;;6.47;;
43487;SDS011;29078;41.932;25.554;2023-02-28T17:14:40;8.05;;;7.25;;
43487;SDS011;29078;41.932;25.554;2023-02-28T17:17:06;7.72;;;7.03;;
43487;SDS011;29078;41.932;25.554;2023-02-28T17:19:32;7.85;;;6.20;;
43487;SDS011;29078;41.932;25.554;2023-02-28T17:21:59;5.85;;;5.25;;
43487;SDS011;29078;41.932;25.554;2023-02-28T17:24:25;6.70;;;6.00;;
43487;SDS011;29078;41.932;25.554;2023-02-28T17:26:50;7.38;;;5.47;;
43487;SDS011;29078;41.932;25.554;2023-02-28T17:29:17;7.18;;;5.95;;
43487;SDS011;29078;41.932;25.554;2023-02-28T17:31:45;4.65;;;4.25;;
43487;SDS011;29078;41.932;25.554;2023-02-28T17:34:11;5.20;;;4.70;;
43487;SDS011;29078;41.932;25.554;2023-02-28T17:36:43;5.88;;;4.70;;
43487;SDS011;29078;41.932;25.554;2023-02-28T17:39:09;4.40;;;4.00;;